sensor_id;sensor_type;location;lat;lon;timestamp;pressure;altitude;pressure_sealevel;temperature
15144;BMP180;7672;50.834;6.286;2023-02-15T00:00:09;100979.06;;;6.85
15144;BMP180;7672;50.834;6.286;2023-02-15T00:02:49;100968.91;;;6.82
15144;BMP180;7672;50.834;6.286;2023-02-15T00:05:16;100968.91;;;6.82
15144;BMP180;7672;50.834;6.286;2023-02-15T00:07:43;100959.72;;;6.83
15144;BMP180;7672;50.834;6.286;2023-02-15T00:10:10;100968.03;;;6.82
15144;BMP180;7672;50.834;6.286;2023-02-15T00:12:38;100959.59;;;6.80
15144;BMP180;7672;50.834;6.286;2023-02-15T00:15:05;100968.78;;;6.79
15144;BMP180;7672;50.834;6.286;2023-02-15T00:17:32;100957.81;;;6.77
15144;BMP180;7672;50.834;6.286;2023-02-15T00:19:59;100950.16;;;6.74
15144;BMP180;7672;50.834;6.286;2023-02-15T00:22:26;100958.56;;;6.75
15144;BMP180;7672;50.834;6.286;2023-02-15T00:24:52;100957.69;;;6.74
15144;BMP180;7672;50.834;6.286;2023-02-15T00:27:19;100956.00;;;6.74
15144;BMP180;7672;50.834;6.286;2023-02-15T00:29:47;100950.88;;;6.72
15144;BMP180;7672;50.834;6.286;2023-02-15T00:32:14;100948.31;;;6.71
15144;BMP180;7672;50.834;6.286;2023-02-15T00:34:43;100951.63;;;6.70
15144;BMP180;7672;50.834;6.286;2023-02-15T00:37:10;100945.66;;;6.66
15144;BMP180;7672;50.834;6.286;2023-02-15T00:39:36;100938.91;;;6.65
15144;BMP180;7672;50.834;6.286;2023-02-15T00:42:03;100942.22;;;6.64
15144;BMP180;7672;50.834;6.286;2023-02-15T00:44:30;100943.00;;;6.63
15144;BMP180;7672;50.834;6.286;2023-02-15T00:46:57;100942.03;;;6.60
15144;BMP180;7672;50.834;6.286;2023-02-15T00:49:24;100950.38;;;6.59
15144;BMP180;7672;50.834;6.286;2023-02-15T00:51:50;100944.38;;;6.55
15144;BMP180;7672;50.834;6.286;2023-02-15T00:54:17;100949.38;;;6.55
15144;BMP180;7672;50.834;6.286;2023-02-15T00:56:44;100941.75;;;6.52
15144;BMP180;7672;50.834;6.286;2023-02-15T00:59:11;100940.81;;;6.50
15144;BMP180;7672;50.834;6.286;2023-02-15T01:01:38;100940.75;;;6.49
15144;BMP180;7672;50.834;6.286;2023-02-15T01:04:05;100954.16;;;6.49
15144;BMP180;7672;50.834;6.286;2023-02-15T01:06:32;100940.66;;;6.46
15144;BMP180;7672;50.834;6.286;2023-02-15T01:08:58;100941.44;;;6.45
15144;BMP180;7672;50.834;6.286;2023-02-15T01:11:25;100936.41;;;6.45
15144;BMP180;7672;50.834;6.286;2023-02-15T01:13:56;100938.78;;;6.42
15144;BMP180;7672;50.834;6.286;2023-02-15T01:16:26;100938.66;;;6.39
15144;BMP180;7672;50.834;6.286;2023-02-15T01:18:53;100931.94;;;6.38
15144;BMP180;7672;50.834;6.286;2023-02-15T01:21:24;100934.38;;;6.36
15144;BMP180;7672;50.834;6.286;2023-02-15T01:23:51;100932.66;;;6.35
15144;BMP180;7672;50.834;6.286;2023-02-15T01:26:18;100934.13;;;6.30
15144;BMP180;7672;50.834;6.286;2023-02-15T01:28:46;100934.94;;;6.29
15144;BMP180;7672;50.834;6.286;2023-02-15T01:31:20;100932.28;;;6.26
15144;BMP180;7672;50.834;6.286;2023-02-15T01:33:48;100935.50;;;6.22
15144;BMP180;7672;50.834;6.286;2023-02-15T01:36:15;100926.19;;;6.20
15144;BMP180;7672;50.834;6.286;2023-02-15T01:38:44;100917.66;;;6.16
15144;BMP180;7672;50.834;6.286;2023-02-15T01:41:11;100920.06;;;6.13
15144;BMP180;7672;50.834;6.286;2023-02-15T01:43:59;100915.66;;;6.08
15144;BMP180;7672;50.834;6.286;2023-02-15T01:46:47;100923.03;;;6.05
15144;BMP180;7672;50.834;6.286;2023-02-15T01:49:19;100914.50;;;6.00
15144;BMP180;7672;50.834;6.286;2023-02-15T01:51:50;100916.84;;;5.97
15144;BMP180;7672;50.834;6.286;2023-02-15T01:54:31;100910.13;;;5.96
15144;BMP180;7672;50.834;6.286;2023-02-15T01:57:06;100914.22;;;5.94
15144;BMP180;7672;50.834;6.286;2023-02-15T01:59:37;100904.06;;;5.91
15144;BMP180;7672;50.834;6.286;2023-02-15T02:02:09;100913.19;;;5.89
15144;BMP180;7672;50.834;6.286;2023-02-15T02:04:48;100898.66;;;5.82
15144;BMP180;7672;50.834;6.286;2023-02-15T02:07:19;100896.75;;;5.77
15144;BMP180;7672;50.834;6.286;2023-02-15T02:09:48;100899.97;;;5.74
15144;BMP180;7672;50.834;6.286;2023-02-15T02:12:17;100897.28;;;5.70
15144;BMP180;7672;50.834;6.286;2023-02-15T02:14:46;100901.31;;;5.66
15144;BMP180;7672;50.834;6.286;2023-02-15T02:23:51;100882.25;;;5.51
15144;BMP180;7672;50.834;6.286;2023-02-15T02:26:59;100876.25;;;5.48
15144;BMP180;7672;50.834;6.286;2023-02-15T02:36:35;100885.72;;;5.36
15144;BMP180;7672;50.834;6.286;2023-02-15T02:42:37;100867.28;;;5.34
15144;BMP180;7672;50.834;6.286;2023-02-15T02:48:06;100872.16;;;5.31
15144;BMP180;7672;50.834;6.286;2023-02-15T02:50:34;100852.75;;;5.27
15144;BMP180;7672;50.834;6.286;2023-02-15T02:53:01;100854.47;;;5.28
15144;BMP180;7672;50.834;6.286;2023-02-15T02:55:35;100851.06;;;5.26
15144;BMP180;7672;50.834;6.286;2023-02-15T02:58:18;100859.47;;;5.28
15144;BMP180;7672;50.834;6.286;2023-02-15T03:00:55;100851.13;;;5.27
15144;BMP180;7672;50.834;6.286;2023-02-15T03:03:52;100851.13;;;5.27
15144;BMP180;7672;50.834;6.286;2023-02-15T03:06:30;100853.56;;;5.26
15144;BMP180;7672;50.834;6.286;2023-02-15T03:09:15;100847.72;;;5.27
15144;BMP180;7672;50.834;6.286;2023-02-15T03:11:46;100841.09;;;5.27
15144;BMP180;7672;50.834;6.286;2023-02-15T03:14:18;100849.44;;;5.28
15144;BMP180;7672;50.834;6.286;2023-02-15T03:16:48;100838.66;;;5.29
15144;BMP180;7672;50.834;6.286;2023-02-15T03:19:24;100827.84;;;5.30
15144;BMP180;7672;50.834;6.286;2023-02-15T03:21:59;100834.47;;;5.29
15144;BMP180;7672;50.834;6.286;2023-02-15T03:25:04;100833.63;;;5.29
15144;BMP180;7672;50.834;6.286;2023-02-15T03:28:03;100836.91;;;5.28
15144;BMP180;7672;50.834;6.286;2023-02-15T03:30:34;100831.00;;;5.26
15144;BMP180;7672;50.834;6.286;2023-02-15T03:33:04;100819.31;;;5.26
15144;BMP180;7672;50.834;6.286;2023-02-15T03:35:50;100822.56;;;5.24
15144;BMP180;7672;50.834;6.286;2023-02-15T03:38:40;100820.78;;;5.21
15144;BMP180;7672;50.834;6.286;2023-02-15T03:41:11;100832.41;;;5.19
15144;BMP180;7672;50.834;6.286;2023-02-15T03:43:52;100827.38;;;5.19
15144;BMP180;7672;50.834;6.286;2023-02-15T03:46:52;100818.94;;;5.17
15144;BMP180;7672;50.834;6.286;2023-02-15T03:49:47;100830.34;;;5.11
15144;BMP180;7672;50.834;6.286;2023-02-15T03:52:17;100824.41;;;5.09
15144;BMP180;7672;50.834;6.286;2023-02-15T03:54:44;100822.81;;;5.11
15144;BMP180;7672;50.834;6.286;2023-02-15T03:57:25;100819.44;;;5.10
15144;BMP180;7672;50.834;6.286;2023-02-15T04:00:23;100817.69;;;5.08
15144;BMP180;7672;50.834;6.286;2023-02-15T04:05:44;100811.63;;;5.03
15144;BMP180;7672;50.834;6.286;2023-02-15T04:08:12;100805.72;;;5.02
15144;BMP180;7672;50.834;6.286;2023-02-15T04:10:39;100807.50;;;5.05
15144;BMP180;7672;50.834;6.286;2023-02-15T04:13:30;100797.38;;;5.02
15144;BMP180;7672;50.834;6.286;2023-02-15T04:15:57;100811.53;;;5.01
15144;BMP180;7672;50.834;6.286;2023-02-15T04:18:40;100808.13;;;4.99
15144;BMP180;7672;50.834;6.286;2023-02-15T04:21:29;100816.31;;;4.95
15144;BMP180;7672;50.834;6.286;2023-02-15T04:24:16;100809.34;;;4.90
15144;BMP180;7672;50.834;6.286;2023-02-15T04:27:03;100813.47;;;4.88
15144;BMP180;7672;50.834;6.286;2023-02-15T04:29:31;100811.75;;;4.87
15144;BMP180;7672;50.834;6.286;2023-02-15T04:32:00;100815.09;;;4.88
15144;BMP180;7672;50.834;6.286;2023-02-15T04:34:28;100809.22;;;4.87
15144;BMP180;7672;50.834;6.286;2023-02-15T04:36:55;100805.72;;;4.84
15144;BMP180;7672;50.834;6.286;2023-02-15T04:39:21;100814.19;;;4.86
15144;BMP180;7672;50.834;6.286;2023-02-15T04:41:48;100811.63;;;4.84
15144;BMP180;7672;50.834;6.286;2023-02-15T04:44:15;100809.91;;;4.83
15144;BMP180;7672;50.834;6.286;2023-02-15T04:46:42;100813.25;;;4.84
15144;BMP180;7672;50.834;6.286;2023-02-15T04:49:09;100807.38;;;4.83
15144;BMP180;7672;50.834;6.286;2023-02-15T04:51:37;100802.31;;;4.82
15144;BMP180;7672;50.834;6.286;2023-02-15T04:54:04;100806.44;;;4.81
15144;BMP180;7672;50.834;6.286;2023-02-15T04:56:31;100803.03;;;4.79
15144;BMP180;7672;50.834;6.286;2023-02-15T04:58:59;100809.84;;;4.82
15144;BMP180;7672;50.834;6.286;2023-02-15T05:01:27;100811.41;;;4.80
15144;BMP180;7672;50.834;6.286;2023-02-15T05:03:54;100804.75;;;4.80
15144;BMP180;7672;50.834;6.286;2023-02-15T05:06:21;100797.16;;;4.79
15144;BMP180;7672;50.834;6.286;2023-02-15T05:08:52;100797.16;;;4.79
15144;BMP180;7672;50.834;6.286;2023-02-15T05:11:29;100792.03;;;4.76
15144;BMP180;7672;50.834;6.286;2023-02-15T05:13:55;100795.31;;;4.75
15144;BMP180;7672;50.834;6.286;2023-02-15T05:16:22;100794.47;;;4.74
15144;BMP180;7672;50.834;6.286;2023-02-15T05:18:49;100792.03;;;4.76
15144;BMP180;7672;50.834;6.286;2023-02-15T05:21:16;100791.91;;;4.73
15144;BMP180;7672;50.834;6.286;2023-02-15T05:23:43;100790.91;;;4.69
15144;BMP180;7672;50.834;6.286;2023-02-15T05:26:21;100786.59;;;4.67
15144;BMP180;7672;50.834;6.286;2023-02-15T05:29:12;100785.59;;;4.63
15144;BMP180;7672;50.834;6.286;2023-02-15T05:31:42;100789.63;;;4.60
15144;BMP180;7672;50.834;6.286;2023-02-15T05:34:18;100781.25;;;4.59
15144;BMP180;7672;50.834;6.286;2023-02-15T05:36:48;100783.66;;;4.56
15144;BMP180;7672;50.834;6.286;2023-02-15T05:39:21;100787.72;;;4.54
15144;BMP180;7672;50.834;6.286;2023-02-15T05:41:48;100786.88;;;4.54
15144;BMP180;7672;50.834;6.286;2023-02-15T05:44:15;100788.44;;;4.52
15144;BMP180;7672;50.834;6.286;2023-02-15T05:46:42;100782.56;;;4.51
15144;BMP180;7672;50.834;6.286;2023-02-15T05:49:10;100780.78;;;4.49
15144;BMP180;7672;50.834;6.286;2023-02-15T05:51:37;100783.28;;;4.49
15144;BMP180;7672;50.834;6.286;2023-02-15T05:54:03;100784.03;;;4.46
15144;BMP180;7672;50.834;6.286;2023-02-15T05:56:31;100784.94;;;4.48
15144;BMP180;7672;50.834;6.286;2023-02-15T05:58:57;100789.09;;;4.48
15144;BMP180;7672;50.834;6.286;2023-02-15T06:01:24;100789.09;;;4.48
15144;BMP180;7672;50.834;6.286;2023-02-15T06:03:51;100784.06;;;4.48
15144;BMP180;7672;50.834;6.286;2023-02-15T06:06:18;100789.94;;;4.48
15144;BMP180;7672;50.834;6.286;2023-02-15T06:08:45;100785.81;;;4.49
15144;BMP180;7672;50.834;6.286;2023-02-15T06:11:12;100791.66;;;4.49
15144;BMP180;7672;50.834;6.286;2023-02-15T06:13:39;100789.16;;;4.49
15144;BMP180;7672;50.834;6.286;2023-02-15T06:16:06;100791.66;;;4.49
15144;BMP180;7672;50.834;6.286;2023-02-15T06:18:34;100791.66;;;4.49
15144;BMP180;7672;50.834;6.286;2023-02-15T06:21:01;100793.25;;;4.47
15144;BMP180;7672;50.834;6.286;2023-02-15T06:23:28;100789.94;;;4.48
15144;BMP180;7672;50.834;6.286;2023-02-15T06:25:55;100790.75;;;4.47
15144;BMP180;7672;50.834;6.286;2023-02-15T06:28:22;100791.59;;;4.48
15144;BMP180;7672;50.834;6.286;2023-02-15T06:30:48;100784.06;;;4.48
15144;BMP180;7672;50.834;6.286;2023-02-15T06:33:15;100785.75;;;4.47
15144;BMP180;7672;50.834;6.286;2023-02-15T06:35:42;100784.94;;;4.48
15144;BMP180;7672;50.834;6.286;2023-02-15T06:38:09;100778.22;;;4.47
15144;BMP180;7672;50.834;6.286;2023-02-15T06:40:36;100784.94;;;4.48
15144;BMP180;7672;50.834;6.286;2023-02-15T06:43:03;100778.34;;;4.50
15144;BMP180;7672;50.834;6.286;2023-02-15T06:45:30;100776.69;;;4.51
15144;BMP180;7672;50.834;6.286;2023-02-15T06:47:57;100772.56;;;4.51
15144;BMP180;7672;50.834;6.286;2023-02-15T06:50:24;100780.13;;;4.53
15144;BMP180;7672;50.834;6.286;2023-02-15T06:52:56;100780.97;;;4.53
15144;BMP180;7672;50.834;6.286;2023-02-15T06:55:24;100775.19;;;4.54
15144;BMP180;7672;50.834;6.286;2023-02-15T06:57:51;100786.16;;;4.56
15144;BMP180;7672;50.834;6.286;2023-02-15T07:00:18;100782.09;;;4.60
15144;BMP180;7672;50.834;6.286;2023-02-15T07:02:45;100781.59;;;4.67
15144;BMP180;7672;50.834;6.286;2023-02-15T07:05:12;100800.53;;;4.79
15144;BMP180;7672;50.834;6.286;2023-02-15T07:07:39;100788.69;;;4.94
15144;BMP180;7672;50.834;6.286;2023-02-15T07:10:06;100782.91;;;5.15
15144;BMP180;7672;50.834;6.286;2023-02-15T07:12:33;100773.22;;;5.43
15144;BMP180;7672;50.834;6.286;2023-02-15T07:15:12;100776.44;;;5.80
15144;BMP180;7672;50.834;6.286;2023-02-15T07:17:40;100776.47;;;6.22
15144;BMP180;7672;50.834;6.286;2023-02-15T07:20:15;100778.34;;;6.71
15144;BMP180;7672;50.834;6.286;2023-02-15T07:22:43;100776.03;;;7.24
15144;BMP180;7672;50.834;6.286;2023-02-15T07:25:11;100769.59;;;7.81
15144;BMP180;7672;50.834;6.286;2023-02-15T07:27:39;100759.91;;;8.47
15144;BMP180;7672;50.834;6.286;2023-02-15T07:30:10;100764.50;;;9.20
15144;BMP180;7672;50.834;6.286;2023-02-15T07:32:37;100755.41;;;9.94
15144;BMP180;7672;50.834;6.286;2023-02-15T07:35:24;100764.94;;;10.80
15144;BMP180;7672;50.834;6.286;2023-02-15T07:37:51;100761.28;;;11.55
15144;BMP180;7672;50.834;6.286;2023-02-15T07:40:20;100748.94;;;12.29
15144;BMP180;7672;50.834;6.286;2023-02-15T07:42:51;100754.09;;;13.02
15144;BMP180;7672;50.834;6.286;2023-02-15T07:45:22;100736.13;;;13.72
15144;BMP180;7672;50.834;6.286;2023-02-15T07:47:49;100734.06;;;14.39
15144;BMP180;7672;50.834;6.286;2023-02-15T07:50:16;100732.63;;;15.08
15144;BMP180;7672;50.834;6.286;2023-02-15T07:52:43;100733.59;;;15.69
15144;BMP180;7672;50.834;6.286;2023-02-15T07:55:09;100726.69;;;16.25
15144;BMP180;7672;50.834;6.286;2023-02-15T07:57:48;100724.81;;;16.80
15144;BMP180;7672;50.834;6.286;2023-02-15T08:00:18;100709.25;;;17.25
15144;BMP180;7672;50.834;6.286;2023-02-15T08:02:56;100709.81;;;17.63
15144;BMP180;7672;50.834;6.286;2023-02-15T08:05:44;100711.16;;;17.99
15144;BMP180;7672;50.834;6.286;2023-02-15T08:08:12;100704.88;;;18.30
15144;BMP180;7672;50.834;6.286;2023-02-15T08:11:29;100702.72;;;18.68
15144;BMP180;7672;50.834;6.286;2023-02-15T08:14:08;100696.22;;;19.05
15144;BMP180;7672;50.834;6.286;2023-02-15T08:16:43;100710.25;;;19.40
15144;BMP180;7672;50.834;6.286;2023-02-15T08:19:17;100695.88;;;19.80
15144;BMP180;7672;50.834;6.286;2023-02-15T08:21:57;100699.38;;;20.22
15144;BMP180;7672;50.834;6.286;2023-02-15T08:24:31;100685.72;;;20.62
15144;BMP180;7672;50.834;6.286;2023-02-15T08:26:58;100685.78;;;20.99
15144;BMP180;7672;50.834;6.286;2023-02-15T08:29:28;100695.97;;;21.39
15144;BMP180;7672;50.834;6.286;2023-02-15T08:32:00;100690.63;;;21.81
15144;BMP180;7672;50.834;6.286;2023-02-15T08:34:33;100688.56;;;22.27
15144;BMP180;7672;50.834;6.286;2023-02-15T08:37:00;100687.50;;;22.63
15144;BMP180;7672;50.834;6.286;2023-02-15T08:39:27;100682.28;;;22.93
15144;BMP180;7672;50.834;6.286;2023-02-15T08:41:55;100681.44;;;23.21
15144;BMP180;7672;50.834;6.286;2023-02-15T08:44:22;100687.16;;;23.55
15144;BMP180;7672;50.834;6.286;2023-02-15T08:46:49;100692.16;;;23.87
15144;BMP180;7672;50.834;6.286;2023-02-15T08:49:20;100691.94;;;24.17
15144;BMP180;7672;50.834;6.286;2023-02-15T08:51:48;100688.25;;;24.47
15144;BMP180;7672;50.834;6.286;2023-02-15T08:54:19;100684.72;;;24.72
15144;BMP180;7672;50.834;6.286;2023-02-15T08:56:46;100686.91;;;25.04
15144;BMP180;7672;50.834;6.286;2023-02-15T08:59:17;100690.00;;;25.35
15144;BMP180;7672;50.834;6.286;2023-02-15T09:01:47;100689.84;;;25.59
15144;BMP180;7672;50.834;6.286;2023-02-15T09:04:14;100684.28;;;25.68
15144;BMP180;7672;50.834;6.286;2023-02-15T09:06:45;100690.22;;;25.71
15144;BMP180;7672;50.834;6.286;2023-02-15T09:09:16;100681.94;;;25.62
15144;BMP180;7672;50.834;6.286;2023-02-15T09:11:46;100674.88;;;25.46
15144;BMP180;7672;50.834;6.286;2023-02-15T09:14:19;100672.00;;;25.32
15144;BMP180;7672;50.834;6.286;2023-02-15T09:16:48;100674.59;;;25.32
15144;BMP180;7672;50.834;6.286;2023-02-15T09:19:20;100674.09;;;25.44
15144;BMP180;7672;50.834;6.286;2023-02-15T09:21:47;100678.38;;;25.64
15144;BMP180;7672;50.834;6.286;2023-02-15T09:24:16;100670.97;;;25.77
15144;BMP180;7672;50.834;6.286;2023-02-15T09:26:47;100665.41;;;25.86
15144;BMP180;7672;50.834;6.286;2023-02-15T09:29:16;100665.66;;;26.00
15144;BMP180;7672;50.834;6.286;2023-02-15T09:31:49;100665.09;;;26.12
15144;BMP180;7672;50.834;6.286;2023-02-15T09:34:19;100663.13;;;26.18
15144;BMP180;7672;50.834;6.286;2023-02-15T09:36:47;100669.06;;;26.20
15144;BMP180;7672;50.834;6.286;2023-02-15T09:39:18;100670.59;;;26.24
15144;BMP180;7672;50.834;6.286;2023-02-15T09:42:22;100673.06;;;26.27
15144;BMP180;7672;50.834;6.286;2023-02-15T09:45:15;100675.13;;;26.39
15144;BMP180;7672;50.834;6.286;2023-02-15T10:06:10;100668.97;;;26.03
15144;BMP180;7672;50.834;6.286;2023-02-15T10:16:26;100673.63;;;25.95
15144;BMP180;7672;50.834;6.286;2023-02-15T10:27:12;100682.06;;;25.80
15144;BMP180;7672;50.834;6.286;2023-02-15T10:30:09;100680.44;;;25.78
15144;BMP180;7672;50.834;6.286;2023-02-15T10:39:02;100672.94;;;25.92
15144;BMP180;7672;50.834;6.286;2023-02-15T10:45:53;100662.69;;;25.89
15144;BMP180;7672;50.834;6.286;2023-02-15T10:59:27;100659.00;;;25.74
15144;BMP180;7672;50.834;6.286;2023-02-15T11:02:19;100650.50;;;25.91
15144;BMP180;7672;50.834;6.286;2023-02-15T11:04:55;100654.00;;;26.10
15144;BMP180;7672;50.834;6.286;2023-02-15T11:07:38;100649.69;;;26.28
15144;BMP180;7672;50.834;6.286;2023-02-15T11:10:50;100655.94;;;26.43
15144;BMP180;7672;50.834;6.286;2023-02-15T11:17:28;100654.63;;;26.71
15144;BMP180;7672;50.834;6.286;2023-02-15T11:20:31;100642.88;;;26.81
15144;BMP180;7672;50.834;6.286;2023-02-15T11:23:02;100638.41;;;26.84
15144;BMP180;7672;50.834;6.286;2023-02-15T11:25:35;100640.38;;;26.80
15144;BMP180;7672;50.834;6.286;2023-02-15T11:28:19;100640.53;;;26.77
15144;BMP180;7672;50.834;6.286;2023-02-15T11:30:55;100633.81;;;26.73
15144;BMP180;7672;50.834;6.286;2023-02-15T11:33:36;100632.63;;;26.61
15144;BMP180;7672;50.834;6.286;2023-02-15T11:36:16;100627.34;;;26.44
15144;BMP180;7672;50.834;6.286;2023-02-15T11:39:28;100623.31;;;26.19
15144;BMP180;7672;50.834;6.286;2023-02-15T11:42:20;100628.56;;;25.79
15144;BMP180;7672;50.834;6.286;2023-02-15T11:47:47;100612.66;;;25.47
15144;BMP180;7672;50.834;6.286;2023-02-15T11:50:26;100602.13;;;25.32
15144;BMP180;7672;50.834;6.286;2023-02-15T11:53:01;100600.06;;;25.20
15144;BMP180;7672;50.834;6.286;2023-02-15T11:55:32;100589.47;;;25.04
15144;BMP180;7672;50.834;6.286;2023-02-15T12:11:19;100578.44;;;24.13
15144;BMP180;7672;50.834;6.286;2023-02-15T12:17:59;100579.91;;;23.72
15144;BMP180;7672;50.834;6.286;2023-02-15T12:20:32;100584.84;;;23.54
15144;BMP180;7672;50.834;6.286;2023-02-15T12:23:28;100583.19;;;23.27
15144;BMP180;7672;50.834;6.286;2023-02-15T12:26:44;100578.19;;;22.97
15144;BMP180;7672;50.834;6.286;2023-02-15T12:29:46;100574.81;;;22.68
15144;BMP180;7672;50.834;6.286;2023-02-15T12:32:25;100573.09;;;22.41
15144;BMP180;7672;50.834;6.286;2023-02-15T12:41:57;100569.09;;;21.39
15144;BMP180;7672;50.834;6.286;2023-02-15T12:44:34;100561.22;;;21.13
15144;BMP180;7672;50.834;6.286;2023-02-15T12:47:18;100565.19;;;20.91
15144;BMP180;7672;50.834;6.286;2023-02-15T12:50:23;100570.03;;;20.65
15144;BMP180;7672;50.834;6.286;2023-02-15T12:53:34;100562.84;;;20.45
15144;BMP180;7672;50.834;6.286;2023-02-15T12:56:26;100561.31;;;20.36
15144;BMP180;7672;50.834;6.286;2023-02-15T12:59:16;100556.28;;;20.32
15144;BMP180;7672;50.834;6.286;2023-02-15T13:02:22;100567.34;;;20.34
15144;BMP180;7672;50.834;6.286;2023-02-15T13:04:54;100566.44;;;20.36
15144;BMP180;7672;50.834;6.286;2023-02-15T13:07:46;100563.78;;;20.39
15144;BMP180;7672;50.834;6.286;2023-02-15T13:10:29;100556.09;;;20.39
15144;BMP180;7672;50.834;6.286;2023-02-15T13:13:32;100552.72;;;20.37
15144;BMP180;7672;50.834;6.286;2023-02-15T13:16:16;100549.25;;;20.40
15144;BMP180;7672;50.834;6.286;2023-02-15T13:18:54;100544.16;;;20.37
15144;BMP180;7672;50.834;6.286;2023-02-15T13:21:32;100528.97;;;20.29
15144;BMP180;7672;50.834;6.286;2023-02-15T13:24:23;100536.00;;;20.20
15144;BMP180;7672;50.834;6.286;2023-02-15T13:27:04;100522.63;;;20.06
15144;BMP180;7672;50.834;6.286;2023-02-15T13:29:49;100526.31;;;19.93
15144;BMP180;7672;50.834;6.286;2023-02-15T13:32:32;100524.03;;;19.78
15144;BMP180;7672;50.834;6.286;2023-02-15T13:35:23;100509.88;;;19.59
15144;BMP180;7672;50.834;6.286;2023-02-15T13:38:45;100522.22;;;19.39
15144;BMP180;7672;50.834;6.286;2023-02-15T13:41:27;100530.97;;;19.29
15144;BMP180;7672;50.834;6.286;2023-02-15T13:47:40;100536.31;;;19.16
15144;BMP180;7672;50.834;6.286;2023-02-15T13:59:25;100529.41;;;18.70
15144;BMP180;7672;50.834;6.286;2023-02-15T14:05:25;100531.53;;;18.41
15144;BMP180;7672;50.834;6.286;2023-02-15T14:08:11;100524.84;;;18.33
15144;BMP180;7672;50.834;6.286;2023-02-15T14:11:12;100520.66;;;18.27
15144;BMP180;7672;50.834;6.286;2023-02-15T14:17:11;100525.03;;;18.21
15144;BMP180;7672;50.834;6.286;2023-02-15T14:32:47;100524.22;;;18.14
15144;BMP180;7672;50.834;6.286;2023-02-15T14:35:24;100527.59;;;18.16
15144;BMP180;7672;50.834;6.286;2023-02-15T14:38:04;100534.34;;;18.22
15144;BMP180;7672;50.834;6.286;2023-02-15T14:41:09;100519.88;;;18.22
15144;BMP180;7672;50.834;6.286;2023-02-15T14:44:16;100513.00;;;18.26
15144;BMP180;7672;50.834;6.286;2023-02-15T14:49:44;100519.78;;;18.27
15144;BMP180;7672;50.834;6.286;2023-02-15T14:55:08;100505.31;;;18.24
15144;BMP180;7672;50.834;6.286;2023-02-15T14:57:35;100507.88;;;18.26
15144;BMP180;7672;50.834;6.286;2023-02-15T15:00:36;100512.13;;;18.27
15144;BMP180;7672;50.834;6.286;2023-02-15T15:03:25;100508.72;;;18.26
15144;BMP180;7672;50.834;6.286;2023-02-15T15:05:55;100504.41;;;18.30
15144;BMP180;7672;50.834;6.286;2023-02-15T15:08:38;100502.66;;;18.32
15144;BMP180;7672;50.834;6.286;2023-02-15T15:14:39;100510.38;;;18.30
15144;BMP180;7672;50.834;6.286;2023-02-15T15:23:49;100516.44;;;18.23
15144;BMP180;7672;50.834;6.286;2023-02-15T15:26:32;100515.56;;;18.24
15144;BMP180;7672;50.834;6.286;2023-02-15T15:29:38;100510.56;;;18.18
15144;BMP180;7672;50.834;6.286;2023-02-15T15:32:16;100499.50;;;18.13
15144;BMP180;7672;50.834;6.286;2023-02-15T15:38:12;100505.56;;;18.05
15144;BMP180;7672;50.834;6.286;2023-02-15T15:47:32;100503.28;;;17.86
15144;BMP180;7672;50.834;6.286;2023-02-15T15:50:17;100505.91;;;17.80
15144;BMP180;7672;50.834;6.286;2023-02-15T15:52:58;100494.94;;;17.69
15144;BMP180;7672;50.834;6.286;2023-02-15T15:55:29;100495.91;;;17.62
15144;BMP180;7672;50.834;6.286;2023-02-15T15:58:08;100505.34;;;17.55
15144;BMP180;7672;50.834;6.286;2023-02-15T16:00:51;100513.06;;;17.51
15144;BMP180;7672;50.834;6.286;2023-02-15T16:03:27;100513.16;;;17.45
15144;BMP180;7672;50.834;6.286;2023-02-15T16:05:56;100518.31;;;17.39
15144;BMP180;7672;50.834;6.286;2023-02-15T16:08:38;100510.72;;;17.32
15144;BMP180;7672;50.834;6.286;2023-02-15T16:11:22;100514.19;;;17.23
15144;BMP180;7672;50.834;6.286;2023-02-15T16:13:50;100517.63;;;17.19
15144;BMP180;7672;50.834;6.286;2023-02-15T16:16:25;100517.72;;;17.10
15144;BMP180;7672;50.834;6.286;2023-02-15T16:19:05;100517.78;;;17.03
15144;BMP180;7672;50.834;6.286;2023-02-15T16:21:40;100519.59;;;16.93
15144;BMP180;7672;50.834;6.286;2023-02-15T16:24:37;100526.47;;;16.84
15144;BMP180;7672;50.834;6.286;2023-02-15T16:27:24;100532.50;;;16.75
15144;BMP180;7672;50.834;6.286;2023-02-15T16:29:56;100524.91;;;16.67
15144;BMP180;7672;50.834;6.286;2023-02-15T16:32:33;100524.09;;;16.59
15144;BMP180;7672;50.834;6.286;2023-02-15T16:35:19;100527.56;;;16.49
15144;BMP180;7672;50.834;6.286;2023-02-15T16:37:49;100532.75;;;16.37
15144;BMP180;7672;50.834;6.286;2023-02-15T16:42:55;100526.91;;;16.20
15144;BMP180;7672;50.834;6.286;2023-02-15T16:45:26;100525.22;;;16.11
15144;BMP180;7672;50.834;6.286;2023-02-15T16:48:18;100518.47;;;16.02
15144;BMP180;7672;50.834;6.286;2023-02-15T16:50:54;100520.22;;;15.94
15144;BMP180;7672;50.834;6.286;2023-02-15T16:53:26;100517.72;;;15.83
15144;BMP180;7672;50.834;6.286;2023-02-15T16:56:04;100523.69;;;15.78
15144;BMP180;7672;50.834;6.286;2023-02-15T16:58:44;100523.72;;;15.67
15144;BMP180;7672;50.834;6.286;2023-02-15T17:01:43;100528.00;;;15.56
15144;BMP180;7672;50.834;6.286;2023-02-15T17:07:05;100531.44;;;15.38
15144;BMP180;7672;50.834;6.286;2023-02-15T17:09:49;100526.38;;;15.32
15144;BMP180;7672;50.834;6.286;2023-02-15T17:12:47;100535.72;;;15.21
15144;BMP180;7672;50.834;6.286;2023-02-15T17:15:26;100533.16;;;15.10
15144;BMP180;7672;50.834;6.286;2023-02-15T17:18:25;100536.56;;;14.99
15144;BMP180;7672;50.834;6.286;2023-02-15T17:21:00;100539.13;;;14.91
15144;BMP180;7672;50.834;6.286;2023-02-15T17:23:43;100535.72;;;14.81
15144;BMP180;7672;50.834;6.286;2023-02-15T17:26:26;100543.34;;;14.73
15144;BMP180;7672;50.834;6.286;2023-02-15T17:29:01;100547.59;;;14.65
15144;BMP180;7672;50.834;6.286;2023-02-15T17:31:32;100553.53;;;14.58
15144;BMP180;7672;50.834;6.286;2023-02-15T17:34:01;100555.22;;;14.82
15144;BMP180;7672;50.834;6.286;2023-02-15T17:36:58;100553.50;;;14.64
15144;BMP180;7672;50.834;6.286;2023-02-15T17:39:25;100556.88;;;14.51
15144;BMP180;7672;50.834;6.286;2023-02-15T17:41:56;100551.78;;;14.39
15144;BMP180;7672;50.834;6.286;2023-02-15T17:44:28;100554.31;;;14.32
15144;BMP180;7672;50.834;6.286;2023-02-15T17:46:56;100544.13;;;14.23
15144;BMP180;7672;50.834;6.286;2023-02-15T17:49:28;100551.72;;;14.19
15144;BMP180;7672;50.834;6.286;2023-02-15T17:52:01;100548.31;;;14.12
15144;BMP180;7672;50.834;6.286;2023-02-15T17:54:33;100551.63;;;14.04